createdAt,value
2019-02-07T00:02:02.839Z,79.20
2019-02-07T00:04:34.506Z,79.70
2019-02-07T00:07:04.657Z,79.40
2019-02-07T00:09:34.929Z,79.10
2019-02-07T00:12:05.335Z,79.50
2019-02-07T00:14:39.729Z,79.30
2019-02-07T00:17:08.199Z,79.40
2019-02-07T00:19:38.336Z,78.90
2019-02-07T00:22:10.035Z,79.20
2019-02-07T00:24:42.953Z,79.10
2019-02-07T00:27:12.374Z,79.60
2019-02-07T00:29:42.648Z,79.40
2019-02-07T00:32:12.882Z,79.40
2019-02-07T00:34:43.214Z,79.30
2019-02-07T00:37:13.456Z,79.80
2019-02-07T00:39:44.286Z,80.10
2019-02-07T00:42:14.513Z,79.70
2019-02-07T00:44:51.131Z,80.20
2019-02-07T00:47:16.679Z,79.90
2019-02-07T00:49:47.127Z,80.00
2019-02-07T00:52:17.456Z,79.10
2019-02-07T00:54:48.230Z,79.50
2019-02-07T00:57:18.408Z,79.70
2019-02-07T00:59:48.999Z,79.60
2019-02-07T01:02:19.987Z,79.90
2019-02-07T01:04:50.275Z,79.90
2019-02-07T01:07:20.557Z,79.90
2019-02-07T01:09:51.039Z,79.20
2019-02-07T01:12:21.363Z,79.50
2019-02-07T01:15:01.728Z,79.40
2019-02-07T01:17:24.960Z,79.70
2019-02-07T01:19:55.262Z,79.80
2019-02-07T01:22:25.946Z,80.10
2019-02-07T01:24:56.237Z,79.80
2019-02-07T01:27:26.867Z,79.90
2019-02-07T01:29:57.123Z,80.10
2019-02-07T01:32:27.887Z,79.90
2019-02-07T01:34:59.208Z,80.00
2019-02-07T01:37:31.327Z,80.10
2019-02-07T01:40:01.676Z,79.70
2019-02-07T01:42:32.440Z,80.40
2019-02-07T01:45:12.573Z,80.10
2019-02-07T01:47:34.548Z,79.90
2019-02-07T01:50:06.423Z,79.70
2019-02-07T01:52:37.316Z,79.70
2019-02-07T01:55:08.038Z,80.00
2019-02-07T01:57:38.261Z,80.50
2019-02-07T02:00:11.773Z,80.30
2019-02-07T02:02:43.104Z,80.70
2019-02-07T02:05:15.909Z,80.40
2019-02-07T02:07:46.638Z,80.20
2019-02-07T02:10:22.192Z,80.00
2019-02-07T02:12:52.579Z,79.80
2019-02-07T02:15:25.071Z,79.90
2019-02-07T02:17:56.013Z,80.10
2019-02-07T02:20:27.788Z,79.30
2019-02-07T02:22:59.102Z,79.10
2019-02-07T02:25:29.255Z,79.70
2019-02-07T02:27:59.714Z,78.90
2019-02-07T02:30:32.385Z,78.30
2019-02-07T02:33:03.177Z,78.20
2019-02-07T02:35:33.381Z,78.50
2019-02-07T02:38:03.544Z,78.90
2019-02-07T02:40:33.879Z,79.30
2019-02-07T02:43:04.555Z,79.80
2019-02-07T02:45:37.630Z,80.50
2019-02-07T02:48:06.767Z,81.10
2019-02-07T02:50:38.568Z,81.60
2019-02-07T02:53:10.191Z,82.00
2019-02-07T02:55:43.116Z,82.20
2019-02-07T02:58:13.969Z,81.90
2019-02-07T03:01:03.146Z,81.10
2019-02-07T03:03:41.025Z,81.40
2019-02-07T03:06:37.214Z,81.20
2019-02-07T03:09:34.607Z,81.60
2019-02-07T03:12:39.374Z,82.10
2019-02-07T03:15:28.671Z,82.40
2019-02-07T03:18:16.780Z,82.30
2019-02-07T03:21:05.051Z,82.10
2019-02-07T03:23:53.779Z,82.00
2019-02-07T03:26:42.066Z,82.40
2019-02-07T03:29:20.994Z,82.90
2019-02-07T03:32:00.806Z,82.90
2019-02-07T03:34:42.814Z,82.70
2019-02-07T03:37:19.407Z,82.50
2019-02-07T03:40:07.691Z,82.30
2019-02-07T03:42:57.034Z,82.20
2019-02-07T03:48:48.598Z,81.60
2019-02-07T03:51:30.794Z,81.90
2019-02-07T03:54:32.348Z,81.70
2019-02-07T03:57:33.602Z,82.10
2019-02-07T04:00:17.094Z,82.90
2019-02-07T04:03:00.086Z,82.50
2019-02-07T04:06:01.728Z,82.10
2019-02-07T04:08:59.829Z,82.00
2019-02-07T04:11:49.498Z,81.50
2019-02-07T04:14:31.484Z,83.60
2019-02-07T04:17:19.490Z,81.40
2019-02-07T04:20:08.166Z,81.40
2019-02-07T04:22:57.232Z,81.30
2019-02-07T04:25:55.207Z,81.50
2019-02-07T04:28:47.976Z,81.40
2019-02-07T04:31:34.650Z,81.90
2019-02-07T04:34:30.610Z,82.10
2019-02-07T04:37:22.922Z,81.90
2019-02-07T04:40:12.465Z,81.70
2019-02-07T04:42:57.170Z,82.00
2019-02-07T04:45:55.550Z,82.00
2019-02-07T04:48:44.543Z,81.40
2019-02-07T04:51:26.055Z,81.20
2019-02-07T04:54:15.073Z,82.00
2019-02-07T04:57:12.847Z,81.60
2019-02-07T05:00:09.973Z,82.20
2019-02-07T05:03:02.036Z,82.30
2019-02-07T05:06:00.187Z,82.70
2019-02-07T05:08:46.990Z,82.60
2019-02-07T05:11:38.816Z,81.50
2019-02-07T05:14:31.307Z,81.70
2019-02-07T05:17:08.602Z,81.50
2019-02-07T05:19:57.958Z,82.20
2019-02-07T05:22:49.089Z,82.60
2019-02-07T05:25:38.420Z,82.70
2019-02-07T05:28:44.963Z,82.60
2019-02-07T05:31:33.675Z,81.90
2019-02-07T05:34:21.810Z,82.20
2019-02-07T05:37:22.948Z,81.90
2019-02-07T05:40:11.588Z,82.30
2019-02-07T05:43:01.094Z,82.00
2019-02-07T05:45:51.250Z,82.30
2019-02-07T05:48:39.235Z,82.70
2019-02-07T05:51:19.724Z,82.00
2019-02-07T05:54:07.593Z,81.90
2019-02-07T05:57:02.586Z,82.50
2019-02-07T05:59:50.582Z,81.50
2019-02-07T06:02:39.830Z,81.40
2019-02-07T06:05:30.238Z,81.70
2019-02-07T06:08:18.985Z,81.60
2019-02-07T06:10:57.390Z,81.40
2019-02-07T06:14:16.251Z,81.20
2019-02-07T06:17:12.300Z,81.90
2019-02-07T06:20:02.368Z,82.20
2019-02-07T06:22:52.613Z,81.70
2019-02-07T06:25:44.838Z,82.30
2019-02-07T06:28:32.781Z,81.40
2019-02-07T06:31:09.895Z,81.40
2019-02-07T06:34:07.361Z,81.10
2019-02-07T06:36:50.485Z,81.50
2019-02-07T06:39:30.265Z,81.70
2019-02-07T06:42:08.667Z,84.20
2019-02-07T06:44:53.087Z,82.20
2019-02-07T06:50:25.149Z,82.00
2019-02-07T06:53:13.064Z,82.30
2019-02-07T06:56:11.942Z,81.90
2019-02-07T06:59:05.909Z,82.60
2019-02-07T07:01:53.820Z,82.10
2019-02-07T07:04:42.228Z,82.30
2019-02-07T07:07:34.364Z,81.70
2019-02-07T07:10:23.218Z,82.00
2019-02-07T07:13:18.944Z,81.30
2019-02-07T07:16:20.449Z,83.00
2019-02-07T07:19:13.372Z,82.00
2019-02-07T07:22:01.473Z,81.40
2019-02-07T07:24:49.896Z,83.90
2019-02-07T07:27:47.138Z,81.20
2019-02-07T07:30:35.468Z,81.00
2019-02-07T07:33:24.559Z,80.70
2019-02-07T07:36:13.063Z,81.00
2019-02-07T07:39:05.554Z,80.50
2019-02-07T07:41:54.880Z,80.60
2019-02-07T07:44:44.037Z,80.50
2019-02-07T07:47:36.063Z,80.30
2019-02-07T07:50:20.919Z,79.50
2019-02-07T07:53:15.749Z,79.30
2019-02-07T07:56:03.858Z,79.30
2019-02-07T07:58:53.443Z,78.70
2019-02-07T08:01:46.444Z,79.00
2019-02-07T08:04:48.261Z,78.10
2019-02-07T08:07:38.035Z,75.40
2019-02-07T08:10:28.155Z,76.80
2019-02-07T08:13:32.883Z,75.80
2019-02-07T08:16:21.216Z,76.70
2019-02-07T08:19:17.218Z,75.60
2019-02-07T08:22:13.066Z,75.00
2019-02-07T08:25:10.803Z,74.80
2019-02-07T08:27:59.492Z,75.50
2019-02-07T08:30:47.154Z,75.80
2019-02-07T08:33:45.694Z,76.00
2019-02-07T08:39:32.125Z,75.90
2019-02-07T08:42:30.585Z,75.80
2019-02-07T08:45:18.744Z,75.60
2019-02-07T08:48:08.536Z,75.30
2019-02-07T08:50:57.077Z,75.00
2019-02-07T08:53:48.167Z,74.90
2019-02-07T08:56:28.732Z,75.00
2019-02-07T08:59:22.129Z,75.30
2019-02-07T09:02:09.237Z,74.70
2019-02-07T09:05:07.460Z,74.10
2019-02-07T09:08:11.884Z,74.70
2019-02-07T09:10:59.746Z,74.60
2019-02-07T09:13:48.929Z,73.80
2019-02-07T09:16:38.086Z,74.10
2019-02-07T09:19:29.379Z,73.60
2019-02-07T09:22:23.861Z,74.00
2019-02-07T09:25:15.566Z,73.00
2019-02-07T09:28:07.636Z,72.80
2019-02-07T09:31:14.927Z,73.30
2019-02-07T09:34:16.822Z,72.20
2019-02-07T09:37:18.176Z,72.60
2019-02-07T09:40:07.870Z,71.00
2019-02-07T09:42:55.903Z,71.30
2019-02-07T09:45:44.193Z,70.20
2019-02-07T09:48:32.324Z,70.80
2019-02-07T09:51:12.495Z,70.00
2019-02-07T09:54:14.436Z,70.70
2019-02-07T09:56:58.096Z,71.00
2019-02-07T09:59:46.695Z,70.40
2019-02-07T10:02:34.449Z,70.00
2019-02-07T10:05:23.308Z,69.70
2019-02-07T10:08:11.376Z,69.30
2019-02-07T10:11:03.615Z,68.10
2019-02-07T10:13:51.739Z,68.50
2019-02-07T10:16:38.783Z,67.80
2019-02-07T10:19:25.947Z,67.90
2019-02-07T10:22:20.031Z,66.70
2019-02-07T10:25:09.631Z,67.00
2019-02-07T10:28:14.050Z,66.90
2019-02-07T10:31:03.572Z,66.90
2019-02-07T10:33:53.494Z,66.40
2019-02-07T10:36:35.005Z,65.70
2019-02-07T10:39:25.830Z,66.20
2019-02-07T10:42:19.297Z,65.70
2019-02-07T10:45:17.422Z,66.00
2019-02-07T10:48:05.146Z,66.10
2019-02-07T10:51:03.961Z,66.50
2019-02-07T10:54:05.119Z,66.10
2019-02-07T10:56:53.129Z,65.00
2019-02-07T10:59:47.828Z,65.50
2019-02-07T11:02:55.280Z,65.00
2019-02-07T11:05:50.398Z,65.40
2019-02-07T11:08:39.000Z,66.50
2019-02-07T11:11:21.564Z,67.70
2019-02-07T11:14:09.066Z,68.00
2019-02-07T11:17:16.426Z,69.50
2019-02-07T11:20:11.692Z,70.50
2019-02-07T11:22:51.302Z,72.00
2019-02-07T11:25:49.527Z,71.40
2019-02-07T11:31:32.894Z,72.90
2019-02-07T11:37:08.130Z,74.20
2019-02-07T11:40:09.535Z,74.60
2019-02-07T11:42:55.147Z,75.10
2019-02-07T11:48:28.152Z,77.50
2019-02-07T11:51:12.323Z,77.20
2019-02-07T11:53:54.419Z,77.50
2019-02-07T11:56:37.842Z,78.30
2019-02-07T11:59:25.665Z,78.50
2019-02-07T12:02:13.668Z,78.20
2019-02-07T12:07:35.142Z,80.40
2019-02-07T12:10:30.840Z,81.80
2019-02-07T12:16:19.714Z,81.00
2019-02-07T12:22:11.410Z,82.40
2019-02-07T12:27:58.991Z,82.60
2019-02-07T12:31:00.393Z,81.70
2019-02-07T12:33:56.261Z,82.10
2019-02-07T12:37:02.037Z,82.30
2019-02-07T12:40:00.507Z,82.50
2019-02-07T12:42:39.523Z,82.60
2019-02-07T12:45:31.067Z,81.80
2019-02-07T12:48:19.252Z,81.00
2019-02-07T12:51:11.639Z,80.80
2019-02-07T12:54:04.025Z,81.20
2019-02-07T13:00:15.440Z,79.40
2019-02-07T13:03:10.927Z,81.00
2019-02-07T13:05:58.922Z,81.80
2019-02-07T13:08:42.011Z,81.50
2019-02-07T13:11:37.278Z,81.80
2019-02-07T13:14:29.755Z,82.20
2019-02-07T13:17:20.090Z,81.70
2019-02-07T13:20:13.253Z,81.60
2019-02-07T13:23:15.412Z,82.80
2019-02-07T13:26:03.850Z,83.60
2019-02-07T13:28:42.155Z,82.50
2019-02-07T13:31:40.550Z,82.50
2019-02-07T13:34:39.782Z,82.80
2019-02-07T13:37:34.868Z,82.70
2019-02-07T13:40:29.038Z,83.80
2019-02-07T13:43:21.794Z,83.30
2019-02-07T13:46:40.104Z,82.90
2019-02-07T13:49:28.449Z,83.00
2019-02-07T13:52:18.084Z,80.60
2019-02-07T13:55:05.871Z,79.70
2019-02-07T13:57:49.872Z,79.80
2019-02-07T14:00:37.248Z,79.80
2019-02-07T14:06:27.603Z,80.30
2019-02-07T14:09:21.786Z,80.70
2019-02-07T14:12:11.294Z,81.00
2019-02-07T14:15:02.353Z,81.40
2019-02-07T14:17:55.205Z,81.10
2019-02-07T14:20:43.196Z,81.90
2019-02-07T14:23:32.727Z,82.50
2019-02-07T14:26:34.133Z,83.20
2019-02-07T14:31:56.152Z,83.20
2019-02-07T14:34:44.747Z,83.20
2019-02-07T14:37:36.954Z,83.30
2019-02-07T14:40:26.440Z,85.10
2019-02-07T14:43:06.255Z,83.80
2019-02-07T14:45:53.892Z,84.10
2019-02-07T14:48:25.192Z,85.80
2019-02-07T14:50:55.818Z,84.80
2019-02-07T14:53:26.407Z,85.60
2019-02-07T14:55:58.667Z,84.70
2019-02-07T15:00:58.411Z,84.20
2019-02-07T15:03:29.186Z,83.90
2019-02-07T15:05:59.295Z,84.20
2019-02-07T15:08:29.661Z,84.30
2019-02-07T15:13:31.452Z,85.70
2019-02-07T15:18:31.380Z,85.10
2019-02-07T15:21:05.368Z,85.50
2019-02-07T15:26:05.364Z,86.10
2019-02-07T15:28:35.606Z,88.00
2019-02-07T15:38:35.972Z,88.90
2019-02-07T15:43:35.714Z,87.30
2019-02-07T15:46:07.825Z,86.90
2019-02-07T15:51:08.971Z,87.30
2019-02-07T15:53:39.285Z,87.30
2019-02-07T15:56:10.061Z,87.00
2019-02-07T15:59:04.351Z,87.20
2019-02-07T16:01:40.273Z,87.20
2019-02-07T16:04:30.946Z,88.10
2019-02-07T16:07:02.383Z,86.90
2019-02-07T16:09:35.039Z,87.30
2019-02-07T16:14:36.219Z,87.50
2019-02-07T16:19:39.567Z,87.40
2019-02-07T16:22:09.905Z,87.70
2019-02-07T16:24:40.069Z,87.60
2019-02-07T16:27:10.285Z,88.80
2019-02-07T16:32:10.978Z,89.00
2019-02-07T16:34:42.324Z,87.90
2019-02-07T16:37:13.862Z,89.10
2019-02-07T16:42:14.591Z,87.90
2019-02-07T16:52:15.562Z,87.80
2019-02-07T16:54:46.683Z,87.90
2019-02-07T16:57:17.207Z,88.60
2019-02-07T17:02:19.085Z,86.90
2019-02-07T17:04:49.235Z,88.80
2019-02-07T17:07:19.767Z,88.30
2019-02-07T17:09:50.455Z,87.90
2019-02-07T17:12:21.102Z,88.90
2019-02-07T17:17:20.982Z,87.60
2019-02-07T17:19:51.233Z,87.80
2019-02-07T17:22:21.916Z,87.60
2019-02-07T17:24:52.780Z,87.40
2019-02-07T17:27:25.051Z,87.20
2019-02-07T17:29:55.376Z,87.00
2019-02-07T17:32:25.530Z,87.00
2019-02-07T17:34:55.896Z,87.00
2019-02-07T17:42:26.757Z,87.80
2019-02-07T17:44:57.197Z,87.00
2019-02-07T17:47:27.530Z,87.00
2019-02-07T17:52:29.748Z,87.00
2019-02-07T17:55:00.989Z,87.40
2019-02-07T17:57:31.204Z,87.70
2019-02-07T18:05:01.349Z,89.20
2019-02-07T18:07:32.906Z,88.00
2019-02-07T18:10:03.228Z,87.90
2019-02-07T18:12:33.581Z,88.00
2019-02-07T18:15:04.749Z,88.90
2019-02-07T18:17:35.085Z,88.30
2019-02-07T18:20:06.908Z,88.50
2019-02-07T18:22:37.325Z,88.30
2019-02-07T18:25:07.706Z,88.60
2019-02-07T18:27:37.935Z,88.60
2019-02-07T18:30:15.604Z,88.50
2019-02-07T18:32:46.413Z,88.80
2019-02-07T18:35:19.177Z,88.70
2019-02-07T18:37:50.253Z,88.60
2019-02-07T18:40:22.754Z,88.40
2019-02-07T18:42:53.483Z,87.90
2019-02-07T18:45:24.980Z,88.00
2019-02-07T18:52:56.422Z,87.90
2019-02-07T18:55:26.763Z,87.80
2019-02-07T18:57:58.074Z,87.60
2019-02-07T19:03:00.328Z,87.50
2019-02-07T19:05:30.658Z,87.50
2019-02-07T19:10:30.497Z,87.30
2019-02-07T19:13:01.311Z,87.10
2019-02-07T19:18:06.039Z,87.70
2019-02-07T19:20:36.667Z,87.50
2019-02-07T19:25:37.173Z,86.10
2019-02-07T19:28:08.118Z,87.00
2019-02-07T19:30:38.421Z,86.60
2019-02-07T19:33:09.161Z,87.10
2019-02-07T19:38:09.663Z,87.50
2019-02-07T19:40:40.503Z,87.20
2019-02-07T19:43:10.932Z,87.70
2019-02-07T19:45:41.372Z,87.80
2019-02-07T19:48:11.627Z,88.00
2019-02-07T19:50:41.924Z,86.30
2019-02-07T19:53:12.109Z,89.20
2019-02-07T19:55:42.367Z,88.00
2019-02-07T19:58:12.629Z,88.10
2019-02-07T20:00:42.931Z,87.60
2019-02-07T20:03:13.196Z,87.60
2019-02-07T20:05:43.591Z,87.00
2019-02-07T20:08:16.797Z,87.20
2019-02-07T20:10:47.238Z,87.70
2019-02-07T20:13:17.497Z,87.00
2019-02-07T20:15:48.360Z,87.50
2019-02-07T20:20:49.478Z,87.70
2019-02-07T20:23:20.155Z,87.30
2019-02-07T20:25:52.319Z,88.00
2019-02-07T20:28:22.550Z,87.40
2019-02-07T20:30:54.324Z,87.30
2019-02-07T20:33:24.783Z,87.40
2019-02-07T20:35:56.520Z,87.50
2019-02-07T20:38:27.189Z,87.70
2019-02-07T20:40:59.666Z,87.50
2019-02-07T20:43:30.117Z,87.00
2019-02-07T20:53:30.098Z,86.80
2019-02-07T20:56:00.298Z,86.70
2019-02-07T20:58:30.819Z,87.30
2019-02-07T21:01:01.058Z,87.60
2019-02-07T21:03:31.574Z,87.10
2019-02-07T21:06:01.899Z,86.90
2019-02-07T21:08:32.415Z,86.60
2019-02-07T21:11:02.801Z,86.70
2019-02-07T21:13:33.198Z,87.00
2019-02-07T21:16:03.384Z,88.30
2019-02-07T21:18:33.770Z,86.00
2019-02-07T21:21:04.135Z,85.90
2019-02-07T21:23:34.714Z,86.00
2019-02-07T21:26:05.313Z,86.40
2019-02-07T21:28:35.636Z,87.00
2019-02-07T21:31:05.838Z,88.90
2019-02-07T21:36:06.188Z,87.00
2019-02-07T21:38:36.888Z,87.20
2019-02-07T21:46:06.195Z,87.50
2019-02-07T21:48:36.491Z,87.00
2019-02-07T21:53:36.748Z,87.00
2019-02-07T21:58:37.381Z,86.50
2019-02-07T22:03:37.277Z,86.40
2019-02-07T22:06:07.581Z,86.10
2019-02-07T22:08:39.060Z,86.70
2019-02-07T22:11:09.711Z,87.10
2019-02-07T22:13:39.917Z,87.10
2019-02-07T22:16:10.250Z,87.20
2019-02-07T22:18:40.362Z,87.30
2019-02-07T22:21:10.808Z,86.90
2019-02-07T22:23:41.022Z,87.00
2019-02-07T22:26:11.255Z,87.60
2019-02-07T22:28:41.520Z,88.00
2019-02-07T22:31:11.788Z,87.00
2019-02-07T22:36:12.803Z,87.20
2019-02-07T22:38:43.329Z,87.30
2019-02-07T22:41:13.523Z,87.30
2019-02-07T22:43:43.958Z,87.50
2019-02-07T22:46:14.172Z,87.70
2019-02-07T22:51:14.284Z,87.50
2019-02-07T22:53:44.436Z,87.80
2019-02-07T22:56:14.972Z,87.70
2019-02-07T23:01:23.164Z,87.20
2019-02-07T23:04:01.296Z,87.20
2019-02-07T23:06:32.919Z,86.90
2019-02-07T23:09:04.504Z,87.10
2019-02-07T23:11:35.261Z,87.80
2019-02-07T23:14:06.605Z,88.10
2019-02-07T23:16:36.889Z,88.30
2019-02-07T23:19:07.924Z,88.60
2019-02-07T23:21:38.155Z,88.80
2019-02-07T23:24:08.465Z,88.90
2019-02-07T23:29:08.447Z,89.00
2019-02-07T23:31:39.188Z,88.80
2019-02-07T23:34:09.467Z,88.90
2019-02-07T23:36:39.825Z,88.10
2019-02-07T23:39:11.041Z,88.70
2019-02-07T23:41:41.154Z,88.90
2019-02-07T23:44:11.508Z,89.10
2019-02-07T23:46:46.421Z,89.00
2019-02-07T23:49:16.533Z,89.20
2019-02-07T23:54:16.388Z,89.80
2019-02-07T23:56:46.897Z,89.70
2019-02-07T23:59:17.332Z,89.80
